MROCSKSP

Guest
Details From MROC - San Jose Juan Santamaria Intl
To SKSP - GUSTAVO ROJAS PINILLA
Flight Number -
Tags generated
Created
Modified
Stats Distance 214 nm / 397 km
Max Altitude 19,900 ft / 6,066 m
Waypoints 4
Social Downloads 0
Likes 0
Share VATSIM

Download

Looking for another format? Having issues loading an existing format? Contact us
Advertisement - Login to hide

Notes

Basic altitude profile: - Ascent Rate: 2500ft/min - Ascent Speed: 250kts - Cruise Altitude: 35000ft - Cruise Speed: 420kts - Descent Rate: 1500ft/min - Descent Speed: 250kts Options: - Use NATs: yes - Use PACOTS: yes - Use low airways: no - Use high airways: yes

Route

MROC COL UA322 AMUBI SKSP

ID Type Via Altitude Latitude Longitude Leg Dist Tot Dist Heading (true) Name
O MROC APT - 0 ft / 0 m 9.99393˚ -84.20888˚ - 0 nm - San Jose Juan Santamaria Intl
COL NDB - 19,900 ft / 6,066 m 10.75333˚ -83.58333˚ 58 nm 58 nm 39° / 39° BARRA DEL COLORADO NDB
AMUBI FIX UA322 (AWY-HI) 19,500 ft / 5,944 m 11.61783˚ -82.71653˚ 72 nm 131 nm 44° / 45° -
O SKSP APT - 0 ft / 0 m 12.58359˚ -81.71119˚ 82 nm 214 nm 45° / 46° GUSTAVO ROJAS PINILLA

Altitude Profile

Advertisement - Login to hide

Weather


0- 5 10 15 20 25 30 35+ Temperature / ° C

Clouds and Precipitation
Forecast for 2017-12-11 18:00 UTC. Updated 13 minutes ago

Ground ~20,000 ft ~40,000 ft Winds

MROC

Details ICAO MROC (SJO)
Name San Jose Juan Santamaria Intl
Region Costa Rica
Timezone America/Costa_Rica (UTC-6.0)
Stats Elevation 3,021 ft / 921 m (AMSL)
Location 9.993927° -84.208884°
Runways 1
Magnetic Variation 1.717° W

METAR

MROC 111500Z 11012G22KT 070V180 9999 FEW030 BKN110 19/13 A3012 NOSIG

Decode

TAF

TAF MROC 111100Z 1112/1212 11015KT 9999 FEW030 SCT100 TX27/1118Z TN19/1210Z TEMPO 1112/1212 11012G24KT

Decode

Departure Runways

ID Width Length Bearing (true) Bearing (mag) Surface Threshold Offset Overrun Length
07 151 ft / 46 m 9,994 ft / 3,046 m 68.91° 70.63° Asphalt 0 ft / 0 m 200 ft / 61 m
25 151 ft / 46 m 9,994 ft / 3,046 m 248.92° 250.64° Asphalt 1,969 ft / 600 m 200 ft / 61 m

SKSP

Details ICAO SKSP (ADZ)
Name GUSTAVO ROJAS PINILLA
Region Colombia
Timezone Unknown (UTC+0.0)
Stats Elevation 19 ft / 6 m (AMSL)
Location 12.583595° -81.711191°
Runways 1
Magnetic Variation 3.676° W

METAR

SKSP 111500Z 35016G26KT 320V020 9999 -DZ SCT012 OVC070 25/23 A3001

Decode

TAF

Not found

Destination Runways

ID Width Length Bearing (true) Bearing (mag) Surface Threshold Offset Overrun Length
06 148 ft / 45 m 7,815 ft / 2,382 m 59.54° 63.22° Asphalt 0 ft / 0 m 0 ft / 0 m
24 148 ft / 45 m 7,815 ft / 2,382 m 239.55° 243.23° Asphalt 0 ft / 0 m 180 ft / 55 m

Popular Alternatives